Airfield :







YOU CAN JOIN US ON...

 
LOGIN :

Register | Disclaimer

   EN    FR    IT 

 









Legend :    VFR   Marginal VFR   IFR   Intensive IFR   Very Intensive IFR
Visi :
Ceiling :
>= 8 km
>= 3000ft
5 to 8 km
1000 to 3000 ft
1500m to 5 km
500 to 1000 ft
800 to 1500m
200 to 500 ft
< 800m
< 200 ft
Symbols :   Thunderstorms  Fog  Heavy snow  Heavy precipitations  Wind > 20 kt






- Airport Elevation : 271 ft


KBAF - Barnes Municipal

CURRENT METAR :
  • 281553Z 17009KT 10SM SCT017 OVC041 24/19 A3017 RMK AO2 SLP214 T02440189

EXPIRED METARs :
  • 281500Z 18009KT 10SM BKN015 OVC023 23/19 A3019 RMK AO2 T02280189
  • 281453Z 18005KT 10SM BKN009 BKN017 OVC023 22/19 A3019 RMK AO2 SLP220 T02220189 58007
  • 281434Z 17008KT 10SM BKN009 BKN017 OVC023 22/18 A3019 RMK AO2 T02220183
  • 281407Z 18009KT 10SM SCT010 OVC017 22/18 A3019 RMK AO2 T02170183
  • 281353Z 18007KT 5SM HZ OVC006 21/18 A3020 RMK AO2 SLP223 T02110183
  • 281328Z 18007KT 5SM HZ OVC006 21/18 A3020 RMK AO2 T02060178

TAF KBAF
Valid from the 28 at 14:00 until the 29 at 12:00 UTC


281416Z 2814/2912 18010KT P6SM SCT010 OVC020
FM282100 19010G19KT P6SM VCSH BKN020
FM290100 18008KT P6SM VCSH OVC008
FM290300 18008KT 5SM BR VCSH OVC008
KZBW FIR / North America



MET'MAP, your aeronautical weather chart ! - Copyright ORBIFLY December 2007 - Disclaimer

ORBIFLY MET'MAP TEAM :

Programming & Development : Alexandra Zaïnal
Concept & original design : Baudouin d'Aumeries
Assistance for programming : Marc-Olivier Méhu
Technical & hardware support : Manuel Goepfert

Contact : metmap@orbifly.com




SOURCES & CREDITS :

   NOAA